Time;durP1;ratioP1;P1;durP2;ratioP2;P2;SDS_P1;SDS_P2;PMS_P1;PMS_P2;Temp;Humidity;BMP_temperature;BMP_pressure;BME280_temperature;BME280_humidity;BME280_pressure;Samples;Min_cycle;Max_cycle;Signal;HPM_P1;HPM_P2
2023/04/28 00:00:38;;;;;;;6.40;2.20;;;;;;;7.88;100.00;101822.88;2080415;28;20192;-63
2023/04/28 00:01:38;;;;;;;4.17;2.50;;;;;;;7.67;100.00;101780.56;2076724;28;20270;-63
2023/04/28 00:02:39;;;;;;;6.10;2.37;;;;;;;8.00;100.00;101830.06;2075739;28;20193;-63
2023/04/28 00:03:40;;;;;;;7.30;2.40;;;;;;;8.01;100.00;101818.63;2079892;28;20208;-62
2023/04/28 00:04:40;;;;;;;7.03;2.70;;;;;;;8.00;100.00;101822.53;2080378;28;20181;-62
2023/04/28 00:05:40;;;;;;;5.33;2.30;;;;;;;7.99;100.00;101825.72;2079704;28;20788;-62
2023/04/28 00:06:41;;;;;;;4.40;2.50;;;;;;;7.96;100.00;101824.50;2080484;28;20278;-62
2023/04/28 00:07:41;;;;;;;4.23;2.27;;;;;;;7.95;100.00;101822.91;2079673;28;20252;-62
2023/04/28 00:08:42;;;;;;;5.33;2.43;;;;;;;7.95;100.00;101830.41;2080665;28;20220;-62
2023/04/28 00:09:42;;;;;;;4.17;2.43;;;;;;;7.86;100.00;101822.47;2080101;28;20260;-62
2023/04/28 00:10:42;;;;;;;5.33;2.30;;;;;;;7.90;100.00;101828.03;2079867;28;20693;-62
2023/04/28 00:11:44;;;;;;;13.63;3.33;;;;;;;7.91;100.00;101833.16;2077659;28;20227;-62
2023/04/28 00:12:45;;;;;;;18.33;4.10;;;;;;;7.89;100.00;101826.44;2079641;28;20184;-62
2023/04/28 00:13:45;;;;;;;4.40;2.30;;;;;;;7.84;100.00;101827.56;2080292;28;20181;-63
2023/04/28 00:14:46;;;;;;;7.17;2.63;;;;;;;7.82;100.00;101835.47;2081006;28;20223;-62
2023/04/28 00:15:46;;;;;;;7.83;3.00;;;;;;;7.83;100.00;101827.97;2080603;28;20196;-62
2023/04/28 00:16:46;;;;;;;6.67;2.70;;;;;;;7.78;100.00;101829.13;2077844;28;20181;-62
2023/04/28 00:17:47;;;;;;;6.50;2.57;;;;;;;7.81;100.00;101828.38;2076178;28;20211;-62
2023/04/28 00:18:47;;;;;;;3.90;2.10;;;;;;;7.77;100.00;101826.75;2079600;28;20654;-62
2023/04/28 00:19:49;;;;;;;3.43;2.37;;;;;;;7.61;100.00;101810.50;2080191;28;20197;-62
2023/04/28 00:20:49;;;;;;;5.90;2.40;;;;;;;7.76;100.00;101830.69;2080258;28;20180;-63
2023/04/28 00:21:50;;;;;;;5.00;2.30;;;;;;;7.76;100.00;101834.25;2077819;28;20212;-63
2023/04/28 00:22:50;;;;;;;4.73;2.20;;;;;;;7.75;100.00;101820.81;2080622;28;20590;-62
2023/04/28 00:23:50;;;;;;;4.77;2.40;;;;;;;7.74;100.00;101828.28;2080576;28;20611;-62
2023/04/28 00:24:51;;;;;;;5.30;2.10;;;;;;;7.69;100.00;101825.13;2080397;28;20671;-62
2023/04/28 00:25:52;;;;;;;4.30;2.53;;;;;;;7.69;100.00;101834.19;2074953;28;20188;-62
2023/04/28 00:26:52;;;;;;;6.25;2.40;;;;;;;7.72;100.00;101827.91;2074503;28;20217;-62
2023/04/28 00:27:53;;;;;;;6.83;2.60;;;;;;;7.72;100.00;101829.84;2074354;28;20196;-62
2023/04/28 00:28:53;;;;;;;4.23;2.30;;;;;;;7.69;100.00;101836.16;2080305;28;20170;-62
2023/04/28 00:29:54;;;;;;;3.77;2.17;;;;;;;7.47;100.00;101804.84;2087049;28;20658;-62
2023/04/28 00:30:55;;;;;;;7.57;3.10;;;;;;;7.61;100.00;101827.03;2079606;28;20744;-63
2023/04/28 00:31:55;;;;;;;4.77;2.50;;;;;;;7.58;100.00;101829.78;2072428;28;20186;-62
2023/04/28 00:32:56;;;;;;;9.27;3.53;;;;;;;7.34;100.00;101802.78;2078991;28;20603;-62
2023/04/28 00:33:56;;;;;;;11.00;3.30;;;;;;;7.46;100.00;101830.88;2080502;28;20207;-62
2023/04/28 00:34:57;;;;;;;11.67;2.77;;;;;;;7.46;100.00;101832.81;2080432;28;20680;-62
2023/04/28 00:35:59;;;;;;;11.97;3.27;;;;;;;7.42;100.00;101865.09;2080533;28;20224;-62
2023/04/28 00:36:59;;;;;;;6.30;2.88;;;;;;;7.38;100.00;101836.72;2079305;28;20181;-62
2023/04/28 00:38:00;;;;;;;6.60;3.20;;;;;;;7.31;100.00;101842.13;2079624;28;20268;-62
2023/04/28 00:39:00;;;;;;;7.83;3.03;;;;;;;7.27;100.00;101838.56;2079260;28;20177;-62
2023/04/28 00:40:01;;;;;;;9.83;3.10;;;;;;;7.28;100.00;101837.41;2079560;28;20264;-62
2023/04/28 00:41:02;;;;;;;7.13;2.63;;;;;;;7.26;100.00;101837.78;2079929;28;20189;-62
2023/04/28 00:42:03;;;;;;;9.67;2.83;;;;;;;7.24;100.00;101840.13;2076942;28;20785;-62
2023/04/28 00:43:04;;;;;;;9.00;2.90;;;;;;;7.25;100.00;101844.47;2074551;28;20220;-62
2023/04/28 00:44:05;;;;;;;6.70;2.50;;;;;;;7.18;100.00;101833.38;2076151;28;20222;-62
2023/04/28 00:45:06;;;;;;;6.33;2.83;;;;;;;7.22;100.00;101847.97;2080355;28;20191;-62
2023/04/28 00:46:06;;;;;;;6.07;2.60;;;;;;;6.47;100.00;101725.63;2078145;28;20180;-62
2023/04/28 00:47:08;;;;;;;5.77;2.50;;;;;;;7.22;100.00;101847.97;2072833;28;20236;-62
2023/04/28 00:48:09;;;;;;;7.05;2.60;;;;;;;7.21;100.00;101849.16;2080044;28;20284;-62
2023/04/28 00:49:10;;;;;;;7.23;2.50;;;;;;;6.98;100.00;101809.16;2080015;28;20204;-62
2023/04/28 00:50:11;;;;;;;5.27;2.57;;;;;;;7.24;100.00;101847.59;2080467;28;20219;-62
2023/04/28 00:51:12;;;;;;;3.93;2.37;;;;;;;7.26;100.00;101848.00;2079753;28;20216;-62
2023/04/28 00:52:12;;;;;;;2.87;2.17;;;;;;;6.18;100.00;101683.22;2075441;28;20276;-62
2023/04/28 00:53:13;;;;;;;7.37;2.80;;;;;;;7.21;100.00;101859.38;2075633;28;20184;-62
2023/04/28 00:54:13;;;;;;;11.93;3.33;;;;;;;7.14;100.00;101837.28;2080044;28;20567;-62
2023/04/28 00:55:15;;;;;;;14.63;3.40;;;;;;;7.14;100.00;101843.59;2080301;28;20256;-63
2023/04/28 00:56:16;;;;;;;6.63;2.80;;;;;;;7.21;100.00;101851.91;2079610;28;20176;-63
2023/04/28 00:57:16;;;;;;;12.73;3.53;;;;;;;6.79;100.00;101788.13;2075799;28;20205;-62
2023/04/28 00:58:17;;;;;;;9.87;3.43;;;;;;;7.24;100.00;101848.41;2078853;28;20184;-62
2023/04/28 00:59:17;;;;;;;8.70;2.80;;;;;;;7.21;100.00;101862.13;2078365;28;20600;-62
2023/04/28 01:00:17;;;;;;;8.63;3.10;;;;;;;7.20;100.00;101860.56;2080525;28;20539;-62
2023/04/28 01:01:18;;;;;;;7.13;2.63;;;;;;;6.16;100.00;101693.81;2079201;28;20223;-62
2023/04/28 01:02:18;;;;;;;10.30;2.93;;;;;;;7.27;100.00;101858.66;2080419;28;20200;-62
2023/04/28 01:03:19;;;;;;;6.80;2.60;;;;;;;7.30;100.00;101854.34;2080138;28;20176;-62
2023/04/28 01:04:20;;;;;;;6.87;2.70;;;;;;;7.18;100.00;101836.13;2080452;28;20165;-62
2023/04/28 01:05:21;;;;;;;6.07;3.03;;;;;;;7.31;100.00;101853.97;2080468;28;20268;-63
2023/04/28 01:06:22;;;;;;;5.93;2.83;;;;;;;6.84;100.00;101801.56;2077740;28;20196;-62
2023/04/28 01:07:23;;;;;;;7.53;2.77;;;;;;;7.29;100.00;101863.81;2073480;28;20670;-62
2023/04/28 01:08:26;;;;;;;4.80;2.33;;;;;;;7.29;100.00;101866.56;2071689;28;20201;-62
2023/04/28 01:09:27;;;;;;;6.28;2.88;;;;;;;7.29;100.00;101861.81;2072080;28;20468;-63
2023/04/28 01:10:27;;;;;;;5.87;2.60;;;;;;;7.30;100.00;101865.38;2075489;28;20187;-62
2023/04/28 01:11:28;;;;;;;5.13;2.30;;;;;;;7.31;100.00;101864.19;2079695;28;20177;-62
2023/04/28 01:12:29;;;;;;;4.37;2.40;;;;;;;7.23;100.00;101868.09;2079829;28;20234;-62
2023/04/28 01:13:30;;;;;;;5.93;2.90;;;;;;;7.24;100.00;101869.66;2080057;28;20257;-63
2023/04/28 01:14:32;;;;;;;9.77;2.93;;;;;;;7.25;100.00;101885.84;2080740;28;20173;-62
2023/04/28 01:15:32;;;;;;;4.47;2.35;;;;;;;7.27;100.00;101868.88;2080068;28;20595;-62
2023/04/28 01:16:34;;;;;;;4.13;2.23;;;;;;;7.24;100.00;101870.47;2080113;28;20219;-62
2023/04/28 01:17:34;;;;;;;5.60;2.60;;;;;;;7.24;100.00;101875.19;2078747;28;20199;-62
2023/04/28 01:18:35;;;;;;;4.63;2.50;;;;;;;6.94;100.00;101827.63;2076325;28;20210;-62
2023/04/28 01:19:35;;;;;;;6.83;2.53;;;;;;;7.22;100.00;101880.28;2075030;28;20219;-62
2023/04/28 01:20:36;;;;;;;4.57;2.57;;;;;;;7.05;100.00;101851.38;2080434;28;20253;-62
2023/04/28 01:21:36;;;;;;;5.83;2.60;;;;;;;7.23;100.00;101873.59;2079635;28;20183;-62
2023/04/28 01:22:37;;;;;;;7.03;3.47;;;;;;;7.20;100.00;101875.16;2074631;28;20193;-62
2023/04/28 01:23:37;;;;;;;8.83;3.27;;;;;;;6.36;100.00;101736.50;2079621;28;20284;-62
2023/04/28 01:24:37;;;;;;;6.03;2.30;;;;;;;7.21;100.00;101873.97;2080252;28;20192;-62
2023/04/28 01:25:38;;;;;;;6.67;2.60;;;;;;;6.66;100.00;101786.78;2080158;28;20207;-62
2023/04/28 01:26:39;;;;;;;5.90;2.63;;;;;;;7.11;100.00;101876.59;2075969;28;20289;-62
2023/04/28 01:27:39;;;;;;;6.17;2.37;;;;;;;7.10;100.00;101872.28;2074099;28;20196;-62
2023/04/28 01:28:40;;;;;;;3.60;2.17;;;;;;;7.06;100.00;101872.25;2080281;28;20180;-62
2023/04/28 01:29:40;;;;;;;4.47;2.50;;;;;;;7.04;100.00;101880.09;2080099;28;20184;-62
2023/04/28 01:30:40;;;;;;;4.73;2.53;;;;;;;6.39;100.00;101793.59;2080209;28;20326;-62
2023/04/28 01:31:41;;;;;;;5.73;2.70;;;;;;;6.91;100.00;101876.03;2075194;28;20196;-62
2023/04/28 01:32:41;;;;;;;5.20;2.60;;;;;;;6.88;100.00;101884.25;2072225;28;20204;-62
2023/04/28 01:33:42;;;;;;;4.40;2.93;;;;;;;6.82;100.00;101888.53;2077592;28;20593;-62
2023/04/28 01:34:42;;;;;;;4.70;3.03;;;;;;;6.77;100.00;101889.63;2080100;28;20692;-62
2023/04/28 01:35:42;;;;;;;5.90;2.50;;;;;;;6.11;100.00;101795.97;2080284;28;20185;-62
2023/04/28 01:36:43;;;;;;;5.57;2.70;;;;;;;6.75;100.00;101891.19;2079666;28;20734;-62
2023/04/28 01:37:43;;;;;;;6.33;2.60;;;;;;;6.72;100.00;101897.44;2078366;28;20677;-62
2023/04/28 01:38:44;;;;;;;4.17;2.53;;;;;;;6.68;100.00;101896.59;2072414;28;20243;-62
2023/04/28 01:39:44;;;;;;;5.90;2.93;;;;;;;6.66;100.00;101899.72;2079726;28;20545;-62
2023/04/28 01:40:45;;;;;;;7.73;2.90;;;;;;;6.65;100.00;101900.09;2079912;28;20270;-64
2023/04/28 01:41:45;;;;;;;5.27;2.70;;;;;;;6.63;100.00;101892.25;2079802;28;20195;-62
2023/04/28 01:42:45;;;;;;;8.27;2.70;;;;;;;6.54;100.00;101885.41;2074771;28;20547;-62
2023/04/28 01:43:46;;;;;;;6.77;2.97;;;;;;;6.63;100.00;101896.94;2074645;28;20271;-62
2023/04/28 01:44:46;;;;;;;7.30;2.77;;;;;;;6.62;100.00;101900.88;2080929;28;20177;-62
2023/04/28 01:45:47;;;;;;;7.67;2.77;;;;;;;6.63;100.00;101900.50;2081448;28;20266;-62
2023/04/28 01:46:47;;;;;;;5.77;2.67;;;;;;;6.64;100.00;101906.78;2081830;28;20219;-62
2023/04/28 01:47:47;;;;;;;7.57;3.23;;;;;;;6.63;100.00;101902.44;2074693;28;20185;-62
2023/04/28 01:48:48;;;;;;;3.80;2.57;;;;;;;6.64;100.00;101906.78;2079642;28;20222;-62
2023/04/28 01:49:49;;;;;;;7.97;2.80;;;;;;;6.62;100.00;101909.13;2081345;28;20197;-62
2023/04/28 01:50:49;;;;;;;5.10;2.73;;;;;;;6.60;100.00;101909.50;2080849;28;20548;-62
2023/04/28 01:51:50;;;;;;;6.60;2.60;;;;;;;6.59;100.00;101907.13;2081175;28;20650;-62
2023/04/28 01:52:50;;;;;;;4.30;3.00;;;;;;;6.57;100.00;101912.22;2077051;28;20725;-63
2023/04/28 01:53:50;;;;;;;5.63;3.00;;;;;;;6.55;100.00;101915.34;2081451;28;20188;-62
2023/04/28 01:54:51;;;;;;;7.00;2.70;;;;;;;6.48;100.00;101906.19;2081976;28;20557;-62
2023/04/28 01:55:52;;;;;;;5.03;2.70;;;;;;;6.54;100.00;101911.00;2080993;28;20203;-62
2023/04/28 01:56:53;;;;;;;5.32;2.80;;;;;;;6.53;100.00;101920.44;2074496;28;20571;-62
2023/04/28 01:57:53;;;;;;;5.87;2.53;;;;;;;6.55;100.00;101920.03;2078441;28;20670;-62
2023/04/28 01:58:53;;;;;;;5.27;2.70;;;;;;;6.55;100.00;101915.34;2081324;28;20199;-62
2023/04/28 01:59:54;;;;;;;4.93;2.97;;;;;;;6.53;100.00;101923.19;2081440;28;20279;-62
2023/04/28 02:00:54;;;;;;;5.50;2.73;;;;;;;6.47;100.00;101918.38;2080620;28;20262;-62
2023/04/28 02:01:55;;;;;;;5.20;3.10;;;;;;;6.47;100.00;101921.91;2081039;28;20176;-62
2023/04/28 02:02:55;;;;;;;4.87;2.70;;;;;;;6.40;100.00;101918.28;2076341;28;20187;-62
2023/04/28 02:03:56;;;;;;;6.97;3.00;;;;;;;6.19;100.00;101882.19;2074993;28;20196;-62
2023/04/28 02:04:57;;;;;;;6.73;3.13;;;;;;;6.43;100.00;101914.78;2079891;28;20210;-62
2023/04/28 02:05:57;;;;;;;7.50;3.33;;;;;;;6.07;100.00;101861.22;2081118;28;20228;-62
2023/04/28 02:06:58;;;;;;;15.43;3.47;;;;;;;6.43;100.00;101925.78;2080891;28;20204;-62
2023/04/28 02:07:59;;;;;;;14.33;3.73;;;;;;;6.47;100.00;101921.13;2077576;28;20219;-62
2023/04/28 02:08:59;;;;;;;9.90;3.53;;;;;;;6.43;100.00;101923.84;2081310;28;20178;-62
2023/04/28 02:09:59;;;;;;;9.20;3.53;;;;;;;6.30;100.00;101905.94;2081382;28;20602;-62
2023/04/28 02:11:00;;;;;;;7.97;3.00;;;;;;;6.38;100.00;101926.13;2081011;28;20258;-62
2023/04/28 02:12:01;;;;;;;6.30;3.00;;;;;;;6.38;100.00;101924.16;2081753;28;20175;-62
2023/04/28 02:13:01;;;;;;;10.23;3.43;;;;;;;6.36;100.00;101926.47;2074635;28;20199;-62
2023/04/28 02:14:02;;;;;;;6.17;2.97;;;;;;;6.00;100.00;101876.81;2078721;28;20283;-62
2023/04/28 02:15:03;;;;;;;7.20;2.83;;;;;;;6.33;100.00;101930.00;2080870;28;20195;-62
2023/04/28 02:16:03;;;;;;;7.83;3.30;;;;;;;6.31;100.00;101929.56;2081408;28;20184;-62
2023/04/28 02:17:04;;;;;;;8.70;2.97;;;;;;;6.34;100.00;101931.56;2081148;28;20261;-62
2023/04/28 02:18:05;;;;;;;5.60;2.63;;;;;;;6.27;100.00;101922.41;2075451;28;20232;-62
2023/04/28 02:19:05;;;;;;;5.23;2.90;;;;;;;6.30;100.00;101938.22;2080901;28;20194;-62
2023/04/28 02:20:06;;;;;;;5.17;2.70;;;;;;;6.35;100.00;101933.16;2081457;28;20180;-62
2023/04/28 02:21:11;;;;;;;5.33;2.80;;;;;;;6.25;100.00;101917.28;2080540;28;20195;-62
2023/04/28 02:22:11;;;;;;;6.40;2.55;;;;;;;6.37;100.00;101941.06;2081612;28;20654;-62
2023/04/28 02:23:12;;;;;;;6.07;2.70;;;;;;;6.37;100.00;101941.84;2073876;28;20651;-62
2023/04/28 02:24:12;;;;;;;4.50;2.40;;;;;;;6.36;100.00;101944.97;2077655;28;20628;-62
2023/04/28 02:25:12;;;;;;;7.60;2.87;;;;;;;6.35;100.00;101949.69;2081599;28;20192;-62
2023/04/28 02:26:13;;;;;;;9.80;3.23;;;;;;;6.17;100.00;101910.09;2088656;28;20278;-62
2023/04/28 02:27:13;;;;;;;6.10;3.10;;;;;;;6.35;100.00;101952.44;2088381;28;20218;-62
2023/04/28 02:28:14;;;;;;;5.43;2.80;;;;;;;6.35;100.00;101946.94;2073800;28;20195;-62
2023/04/28 02:29:14;;;;;;;6.27;2.60;;;;;;;5.69;100.00;101844.09;2081280;28;20181;-62
2023/04/28 02:30:15;;;;;;;7.63;3.00;;;;;;;6.38;100.00;101957.22;2081025;28;20203;-62
2023/04/28 02:31:15;;;;;;;7.77;2.80;;;;;;;6.40;100.00;101959.59;2080748;28;20194;-62
2023/04/28 02:32:16;;;;;;;8.90;2.90;;;;;;;6.42;100.00;101949.00;2081229;28;20204;-62
2023/04/28 02:33:16;;;;;;;9.47;3.10;;;;;;;6.45;100.00;101946.28;2077073;28;20677;-62
2023/04/28 02:34:16;;;;;;;5.17;3.10;;;;;;;6.26;100.00;101920.84;2081472;28;20179;-62
2023/04/28 02:35:17;;;;;;;7.83;2.90;;;;;;;6.47;100.00;101945.91;2079638;28;20180;-62
2023/04/28 02:36:18;;;;;;;7.18;2.78;;;;;;;6.49;100.00;101949.06;2079279;28;20274;-62
2023/04/28 02:37:18;;;;;;;4.33;2.80;;;;;;;6.40;100.00;101940.31;2073107;28;20658;-62
2023/04/28 02:38:19;;;;;;;5.60;3.30;;;;;;;6.49;100.00;101951.84;2080132;28;20241;-62
2023/04/28 02:39:21;;;;;;;8.57;3.20;;;;;;;6.50;100.00;101951.47;2081326;28;20666;-62
2023/04/28 02:40:21;;;;;;;12.77;3.20;;;;;;;6.50;100.00;101954.22;2080995;28;20208;-62
2023/04/28 02:41:22;;;;;;;15.97;4.03;;;;;;;6.46;100.00;101958.09;2076837;28;20207;-62
2023/04/28 02:42:22;;;;;;;16.50;3.73;;;;;;;6.49;100.00;101954.59;2075214;28;26073;-62
2023/04/28 02:43:23;;;;;;;10.27;2.97;;;;;;;6.46;100.00;101958.09;2080666;28;20238;-62
2023/04/28 02:44:23;;;;;;;10.60;3.30;;;;;;;6.41;100.00;101961.19;2081511;28;20176;-62
2023/04/28 02:45:23;;;;;;;11.33;3.60;;;;;;;6.42;100.00;101952.53;2081651;28;20170;-62
2023/04/28 02:46:24;;;;;;;8.53;3.30;;;;;;;6.39;100.00;101956.03;2073565;28;20752;-62
2023/04/28 02:47:24;;;;;;;10.23;3.53;;;;;;;6.36;100.00;101962.28;2078606;28;20192;-62
2023/04/28 02:48:25;;;;;;;12.93;3.40;;;;;;;5.25;100.00;101807.25;2077854;28;20199;-62
2023/04/28 02:49:25;;;;;;;11.00;3.10;;;;;;;6.27;100.00;101960.97;2080987;28;20203;-62
2023/04/28 02:50:26;;;;;;;10.77;3.20;;;;;;;6.25;100.00;101961.31;2080666;28;20184;-62
2023/04/28 02:51:27;;;;;;;9.23;3.23;;;;;;;6.20;100.00;101947.88;2080817;28;20176;-62
2023/04/28 02:52:27;;;;;;;5.93;3.30;;;;;;;6.28;100.00;101962.53;2080989;28;20172;-62
2023/04/28 02:53:28;;;;;;;10.40;3.73;;;;;;;5.49;100.00;101840.63;2073554;28;20261;-62
2023/04/28 02:54:28;;;;;;;11.87;3.90;;;;;;;6.20;100.00;101947.09;2080116;28;20257;-62
2023/04/28 02:55:29;;;;;;;7.40;3.17;;;;;;;6.25;100.00;101961.31;2080886;28;20211;-62
2023/04/28 02:56:29;;;;;;;8.17;3.20;;;;;;;6.25;100.00;101966.84;2080491;28;20275;-62
2023/04/28 02:57:30;;;;;;;8.00;3.00;;;;;;;6.24;100.00;101965.25;2076870;28;20214;-62
2023/04/28 02:58:30;;;;;;;8.70;3.23;;;;;;;6.21;100.00;101965.19;2075159;28;20200;-62
2023/04/28 02:59:31;;;;;;;6.83;3.20;;;;;;;5.62;100.00;101888.78;2081253;28;20259;-62
2023/04/28 03:00:31;;;;;;;11.13;3.30;;;;;;;6.04;100.00;101943.69;2080913;28;20177;-62
2023/04/28 03:01:32;;;;;;;4.73;3.27;;;;;;;6.23;100.00;101971.94;2080867;28;20172;-62
2023/04/28 03:02:32;;;;;;;7.40;3.47;;;;;;;6.25;100.00;101968.81;2081096;28;20197;-62
2023/04/28 03:03:33;;;;;;;7.10;3.50;;;;;;;6.06;100.00;101938.63;2079454;28;20188;-62
2023/04/28 03:04:33;;;;;;;9.50;3.90;;;;;;;6.24;100.00;101965.25;2081135;28;20198;-62
2023/04/28 03:05:34;;;;;;;8.00;3.70;;;;;;;6.06;100.00;101957.88;2080677;28;20203;-63
2023/04/28 03:06:34;;;;;;;8.30;3.17;;;;;;;6.27;100.00;101970.03;2080949;28;20198;-62
2023/04/28 03:07:35;;;;;;;5.97;3.10;;;;;;;6.27;100.00;101971.97;2078158;28;20244;-62
2023/04/28 03:08:35;;;;;;;9.10;3.10;;;;;;;5.23;100.00;101821.34;2079132;28;20744;-62
2023/04/28 03:09:36;;;;;;;7.00;3.17;;;;;;;6.27;100.00;101966.47;2081441;28;20187;-62
2023/04/28 03:10:36;;;;;;;10.37;3.60;;;;;;;6.27;100.00;101969.22;2080887;28;20195;-62
2023/04/28 03:11:37;;;;;;;9.83;3.77;;;;;;;6.28;100.00;101974.38;2080189;28;20275;-62
2023/04/28 03:12:37;;;;;;;11.73;3.50;;;;;;;5.50;100.00;101867.00;2080887;28;20196;-62
2023/04/28 03:13:37;;;;;;;13.27;4.20;;;;;;;6.20;100.00;101982.91;2076923;28;20269;-62
2023/04/28 03:14:38;;;;;;;16.03;4.30;;;;;;;6.21;100.00;101976.22;2081047;28;20281;-62
2023/04/28 03:15:38;;;;;;;17.03;4.47;;;;;;;6.14;100.00;101965.88;2080900;28;20184;-62
2023/04/28 03:16:39;;;;;;;13.83;4.63;;;;;;;6.10;100.00;101950.50;2080510;28;20176;-62
2023/04/28 03:17:41;;;;;;;18.40;4.70;;;;;;;6.23;100.00;101973.88;2080413;28;20208;-62
2023/04/28 03:18:41;;;;;;;15.93;4.28;;;;;;;6.23;100.00;101976.63;2080788;28;20657;-62
2023/04/28 03:19:41;;;;;;;14.83;4.27;;;;;;;5.98;100.00;101986.44;2080848;28;20626;-62
2023/04/28 03:20:42;;;;;;;13.00;4.17;;;;;;;6.12;100.00;101984.75;2080752;28;20226;-62
2023/04/28 03:21:42;;;;;;;15.57;4.03;;;;;;;6.06;100.00;101972.44;2080665;28;20196;-62
2023/04/28 03:22:42;;;;;;;9.97;4.13;;;;;;;5.98;100.00;101965.25;2080761;28;20195;-62
2023/04/28 03:23:43;;;;;;;13.47;4.50;;;;;;;5.15;100.00;101838.91;2074585;28;20185;-62
2023/04/28 03:24:43;;;;;;;10.53;4.13;;;;;;;6.11;100.00;101993.34;2081326;28;20268;-62
2023/04/28 03:25:44;;;;;;;11.20;4.00;;;;;;;6.14;100.00;101981.59;2081245;28;20187;-62
2023/04/28 03:26:44;;;;;;;9.80;4.10;;;;;;;6.15;100.00;101991.47;2072884;28;20214;-62
2023/04/28 03:27:45;;;;;;;14.37;5.00;;;;;;;6.19;100.00;101998.59;2071715;28;20192;-62
2023/04/28 03:28:46;;;;;;;13.43;4.43;;;;;;;6.16;100.00;101996.56;2078220;28;20192;-62
2023/04/28 03:29:46;;;;;;;14.60;5.13;;;;;;;6.19;100.00;101992.28;2081027;28;20192;-62
2023/04/28 03:30:47;;;;;;;20.53;4.97;;;;;;;6.20;100.00;101997.44;2080275;28;20192;-62
2023/04/28 03:31:47;;;;;;;21.03;5.03;;;;;;;6.21;100.00;101998.25;2080991;28;20187;-62
2023/04/28 03:32:47;;;;;;;17.37;4.93;;;;;;;6.25;100.00;101988.09;2080557;28;20270;-62
2023/04/28 03:33:48;;;;;;;17.93;6.07;;;;;;;6.19;100.00;101979.34;2072770;28;20180;-62
2023/04/28 03:34:48;;;;;;;19.00;5.10;;;;;;;5.77;100.00;101923.59;2081248;28;20180;-62
2023/04/28 03:35:49;;;;;;;14.80;5.40;;;;;;;6.16;100.00;101998.56;2080863;28;20249;-62
2023/04/28 03:36:49;;;;;;;16.97;5.00;;;;;;;6.16;100.00;102004.06;2080925;28;20185;-62
2023/04/28 03:37:49;;;;;;;14.57;4.90;;;;;;;6.16;100.00;101999.31;2079266;28;20754;-62
2023/04/28 03:38:50;;;;;;;19.40;4.77;;;;;;;6.17;100.00;102000.94;2075885;28;20277;-62
2023/04/28 03:39:50;;;;;;;12.53;4.60;;;;;;;6.13;100.00;102004.78;2080222;28;20657;-62
2023/04/28 03:40:51;;;;;;;13.03;4.40;;;;;;;6.11;100.00;102001.63;2077876;28;20646;-62
2023/04/28 03:41:51;;;;;;;14.20;4.53;;;;;;;5.14;100.00;101847.50;2072899;28;20593;-62
2023/04/28 03:42:51;;;;;;;10.50;4.30;;;;;;;6.04;100.00;101993.22;2080960;28;20231;-62
2023/04/28 03:43:52;;;;;;;9.40;4.13;;;;;;;6.19;100.00;102011.56;2073796;28;20624;-62
2023/04/28 03:44:52;;;;;;;10.60;4.13;;;;;;;6.19;100.00;102008.81;2078443;28;20542;-62
2023/04/28 03:45:53;;;;;;;8.63;4.07;;;;;;;6.17;100.00;102011.94;2080951;28;20207;-62
2023/04/28 03:46:53;;;;;;;10.30;4.20;;;;;;;6.11;100.00;102013.41;2080732;28;20294;-62
2023/04/28 03:47:54;;;;;;;11.30;4.20;;;;;;;6.15;100.00;102016.25;2079158;28;20508;-62
2023/04/28 03:48:54;;;;;;;10.23;4.00;;;;;;;5.74;100.00;101948.31;2073133;28;20177;-62
2023/04/28 03:49:55;;;;;;;7.67;3.70;;;;;;;6.11;100.00;102004.38;2080122;28;20201;-62
2023/04/28 03:50:56;;;;;;;5.78;4.07;;;;;;;6.12;100.00;102022.47;2080629;28;20172;-62
2023/04/28 03:51:56;;;;;;;8.40;3.90;;;;;;;6.11;100.00;102021.66;2080487;28;20187;-62
2023/04/28 03:52:56;;;;;;;8.87;4.30;;;;;;;6.14;100.00;102028.38;2080204;28;20671;-62
2023/04/28 03:53:57;;;;;;;8.07;4.00;;;;;;;6.12;100.00;102020.53;2077573;28;20266;-62
2023/04/28 03:54:58;;;;;;;8.30;3.97;;;;;;;6.10;100.00;102020.06;2080398;28;20202;-62
2023/04/28 03:55:58;;;;;;;12.17;4.67;;;;;;;6.08;100.00;102027.09;2077761;28;20197;-62
2023/04/28 03:56:59;;;;;;;12.30;4.53;;;;;;;6.09;100.00;102032.25;2074183;28;20172;-62
2023/04/28 03:58:00;;;;;;;12.18;4.60;;;;;;;6.16;100.00;102023.31;2079641;28;20180;-62
2023/04/28 03:59:00;;;;;;;11.17;4.30;;;;;;;6.18;100.00;102024.53;2080894;28;20186;-62
2023/04/28 04:00:01;;;;;;;12.20;4.80;;;;;;;4.85;100.00;101817.94;2080619;28;20681;-62
2023/04/28 04:01:01;;;;;;;13.37;4.80;;;;;;;6.23;100.00;102031.69;2079936;28;20303;-62
2023/04/28 04:02:01;;;;;;;14.80;5.70;;;;;;;6.28;100.00;102034.13;2074739;28;20549;-62
2023/04/28 04:03:02;;;;;;;15.10;5.00;;;;;;;6.31;100.00;102030.66;2074024;28;20633;-62
2023/04/28 04:04:03;;;;;;;13.20;4.20;;;;;;;6.35;100.00;102029.53;2073621;28;20662;-62
2023/04/28 04:05:04;;;;;;;16.17;4.90;;;;;;;6.38;100.00;102033.50;2072128;28;20181;-63
2023/04/28 04:06:05;;;;;;;18.23;5.33;;;;;;;6.39;100.00;102035.09;2072073;28;20214;-63
2023/04/28 04:07:05;;;;;;;16.40;5.17;;;;;;;6.33;100.00;102022.81;2073538;28;20221;-62
2023/04/28 04:08:06;;;;;;;14.93;4.93;;;;;;;6.44;100.00;102032.81;2069939;28;20279;-63
2023/04/28 04:09:06;;;;;;;11.37;4.80;;;;;;;6.43;100.00;102025.72;2072275;28;20671;-63
2023/04/28 04:10:07;;;;;;;19.37;5.87;;;;;;;6.43;100.00;102034.00;2073303;28;20222;-62
2023/04/28 04:11:07;;;;;;;17.30;5.70;;;;;;;6.37;100.00;102021.72;2071205;28;20241;-62
2023/04/28 04:12:08;;;;;;;18.23;4.63;;;;;;;6.46;100.00;102046.22;2073512;28;20643;-63
2023/04/28 04:13:08;;;;;;;22.77;5.20;;;;;;;6.38;100.00;102036.25;2074574;28;20186;-62
2023/04/28 04:14:08;;;;;;;16.83;4.90;;;;;;;6.44;100.00;102043.84;2072518;28;20553;-62
2023/04/28 04:15:09;;;;;;;23.30;5.70;;;;;;;6.47;100.00;102053.31;2080617;28;20230;-62
2023/04/28 04:16:09;;;;;;;17.03;5.10;;;;;;;6.49;100.00;102046.28;2073056;28;20189;-63
2023/04/28 04:17:10;;;;;;;18.77;5.90;;;;;;;6.53;100.00;102038.88;2072673;28;20181;-63
2023/04/28 04:18:10;;;;;;;28.27;5.77;;;;;;;6.44;100.00;102026.50;2071401;28;20199;-62
2023/04/28 04:19:11;;;;;;;17.57;7.07;;;;;;;6.56;100.00;102042.84;2073385;28;20254;-62
2023/04/28 04:20:11;;;;;;;18.00;6.17;;;;;;;6.57;100.00;102044.44;2072078;28;20644;-62
2023/04/28 04:21:12;;;;;;;19.87;5.80;;;;;;;6.59;100.00;102042.88;2071430;28;20734;-62
2023/04/28 04:22:12;;;;;;;17.03;6.40;;;;;;;6.60;100.00;102047.22;2072035;28;20210;-62
2023/04/28 04:23:13;;;;;;;19.63;5.90;;;;;;;6.60;100.00;102047.22;2072585;28;20676;-62
2023/04/28 04:24:13;;;;;;;19.97;5.57;;;;;;;6.61;100.00;102045.28;2073379;28;20651;-63
2023/04/28 04:25:14;;;;;;;15.00;5.10;;;;;;;6.62;100.00;102039.38;2072725;28;20192;-63
2023/04/28 04:26:14;;;;;;;15.13;5.13;;;;;;;6.63;100.00;102040.97;2071611;28;20611;-63
2023/04/28 04:27:15;;;;;;;14.80;5.80;;;;;;;6.66;100.00;102036.69;2071400;28;20211;-63
2023/04/28 04:28:15;;;;;;;10.50;4.97;;;;;;;6.68;100.00;102046.19;2073971;28;20176;-63
2023/04/28 04:29:16;;;;;;;17.17;5.90;;;;;;;6.68;100.00;102042.63;2078385;28;20284;-62
2023/04/28 04:30:16;;;;;;;16.23;5.87;;;;;;;6.71;100.00;102044.63;2071959;28;20185;-62
2023/04/28 04:31:18;;;;;;;18.33;6.70;;;;;;;6.68;100.00;102029.66;2071727;28;20634;-62
2023/04/28 04:32:18;;;;;;;22.77;8.40;;;;;;;6.77;100.00;102040.38;2072895;28;20689;-62
2023/04/28 04:33:19;;;;;;;23.57;8.17;;;;;;;6.79;100.00;102036.09;2071854;28;20194;-62
2023/04/28 04:34:19;;;;;;;24.30;8.63;;;;;;;6.85;100.00;102042.06;2072008;28;20197;-62
2023/04/28 04:35:19;;;;;;;24.27;8.43;;;;;;;6.87;100.00;102040.53;2072006;28;20204;-63
2023/04/28 04:36:20;;;;;;;22.87;6.97;;;;;;;6.86;100.00;102038.94;2072343;28;20555;-62
2023/04/28 04:37:20;;;;;;;18.17;6.93;;;;;;;6.89;100.00;102040.97;2072155;28;20172;-63
2023/04/28 04:38:21;;;;;;;17.33;7.63;;;;;;;6.92;100.00;102040.19;2068224;28;21012;-63
2023/04/28 04:39:21;;;;;;;18.77;7.07;;;;;;;6.88;100.00;102033.06;2071891;28;20581;-62
2023/04/28 04:40:21;;;;;;;21.50;7.40;;;;;;;6.04;100.00;101896.91;2069784;28;20692;-62